createdAt,value
2019-03-05T00:01:43.615Z,1.23
2019-03-05T00:04:13.553Z,0.60
2019-03-05T00:06:43.759Z,0.80
2019-03-05T00:09:21.217Z,0.90
2019-03-05T00:11:51.412Z,1.17
2019-03-05T00:14:23.770Z,0.67
2019-03-05T00:16:53.698Z,0.77
2019-03-05T00:19:23.463Z,0.70
2019-03-05T00:21:53.514Z,0.80
2019-03-05T00:24:48.824Z,0.57
2019-03-05T00:27:18.804Z,0.57
2019-03-05T00:30:33.058Z,0.70
2019-03-05T00:33:16.859Z,0.80
2019-03-05T00:36:33.900Z,1.00
2019-03-05T00:39:30.168Z,0.80
2019-03-05T00:42:29.065Z,0.60
2019-03-05T00:45:39.024Z,0.83
2019-03-05T00:48:55.439Z,0.70
2019-03-05T00:51:52.776Z,1.10
2019-03-05T00:55:02.426Z,0.53
2019-03-05T00:57:59.574Z,0.90
2019-03-05T01:01:22.107Z,0.60
2019-03-05T01:04:26.290Z,1.10
2019-03-05T01:06:56.563Z,0.60
2019-03-05T01:09:26.574Z,0.70
2019-03-05T01:11:56.533Z,0.97
2019-03-05T01:14:27.118Z,1.20
2019-03-05T01:16:57.017Z,0.90
2019-03-05T01:19:28.095Z,0.87
2019-03-05T01:21:58.857Z,0.90
2019-03-05T01:24:28.799Z,0.70
2019-03-05T01:26:58.911Z,0.80
2019-03-05T01:29:28.816Z,0.90
2019-03-05T01:32:20.706Z,0.77
2019-03-05T01:35:08.487Z,0.93
2019-03-05T01:37:38.926Z,1.33
2019-03-05T01:40:22.435Z,1.00
2019-03-05T01:42:52.691Z,0.80
2019-03-05T01:45:23.049Z,0.60
2019-03-05T01:47:53.011Z,1.00
2019-03-05T01:50:23.326Z,0.80
2019-03-05T01:52:53.154Z,0.83
2019-03-05T01:55:23.400Z,0.80
2019-03-05T01:57:53.320Z,1.07
2019-03-05T02:00:23.175Z,1.00
2019-03-05T02:02:52.951Z,0.83
2019-03-05T02:05:23.673Z,0.90
2019-03-05T02:07:53.571Z,1.00
2019-03-05T02:10:23.572Z,0.93
2019-03-05T02:12:53.398Z,0.90
2019-03-05T02:15:23.170Z,1.00
2019-03-05T02:17:52.954Z,0.80
2019-03-05T02:20:24.536Z,0.80
2019-03-05T02:23:19.598Z,0.90
2019-03-05T02:26:14.469Z,1.20
2019-03-05T02:28:50.372Z,0.80
2019-03-05T02:31:45.213Z,0.70
2019-03-05T02:34:23.712Z,0.60
2019-03-05T02:37:31.713Z,0.93
2019-03-05T02:40:32.669Z,0.80
2019-03-05T02:43:25.558Z,0.60
2019-03-05T02:46:26.676Z,0.60
2019-03-05T02:49:42.681Z,0.70
2019-03-05T02:52:38.241Z,0.77
2019-03-05T02:55:55.903Z,0.80
2019-03-05T02:58:23.830Z,0.70
2019-03-05T03:01:24.148Z,0.97
2019-03-05T03:03:57.465Z,1.10
2019-03-05T03:06:30.892Z,1.03
2019-03-05T03:09:51.495Z,0.80
2019-03-05T03:12:21.719Z,0.80
2019-03-05T03:14:51.888Z,0.80
2019-03-05T03:17:21.668Z,0.87
2019-03-05T03:19:51.807Z,0.93
2019-03-05T03:22:22.092Z,0.80
2019-03-05T03:24:53.059Z,1.60
2019-03-05T03:27:22.950Z,1.10
2019-03-05T03:29:52.829Z,1.00
2019-03-05T03:32:22.648Z,0.70
2019-03-05T03:34:53.277Z,0.87
2019-03-05T03:37:23.447Z,0.70
2019-03-05T03:39:53.240Z,0.97
2019-03-05T03:42:23.337Z,1.17
2019-03-05T03:44:54.206Z,0.60
2019-03-05T03:47:24.455Z,0.97
2019-03-05T03:49:56.758Z,0.93
2019-03-05T03:52:26.578Z,0.87
2019-03-05T03:54:57.069Z,1.10
2019-03-05T03:57:26.914Z,0.70
2019-03-05T03:59:57.201Z,1.00
2019-03-05T04:02:27.515Z,0.97
2019-03-05T04:04:57.486Z,0.73
2019-03-05T04:07:27.315Z,0.97
2019-03-05T04:09:57.151Z,0.73
2019-03-05T04:12:26.934Z,1.07
2019-03-05T04:14:56.747Z,0.97
2019-03-05T04:17:26.850Z,1.13
2019-03-05T04:19:57.451Z,1.53
2019-03-05T04:22:28.480Z,1.13
2019-03-05T04:24:58.286Z,0.80
2019-03-05T04:27:28.133Z,0.63
2019-03-05T04:29:58.940Z,0.90
2019-03-05T04:32:29.283Z,1.10
2019-03-05T04:34:59.115Z,0.80
2019-03-05T04:37:29.271Z,1.03
2019-03-05T04:39:59.041Z,0.80
2019-03-05T04:42:28.866Z,0.73
2019-03-05T04:45:23.486Z,0.77
2019-03-05T04:47:53.721Z,0.90
2019-03-05T04:50:28.466Z,0.70
2019-03-05T04:52:59.120Z,0.90
2019-03-05T04:55:28.890Z,1.70
2019-03-05T04:57:58.711Z,0.90
2019-03-05T05:00:28.915Z,1.00
2019-03-05T05:02:59.139Z,0.70
2019-03-05T05:05:29.492Z,0.60
2019-03-05T05:07:59.642Z,0.80
2019-03-05T05:10:29.469Z,0.50
2019-03-05T05:12:59.693Z,0.93
2019-03-05T05:15:33.638Z,1.13
2019-03-05T05:18:05.743Z,0.83
2019-03-05T05:20:35.604Z,0.90
2019-03-05T05:23:08.857Z,0.90
2019-03-05T05:25:39.526Z,0.80
2019-03-05T05:28:09.432Z,1.10
2019-03-05T05:30:41.134Z,0.70
2019-03-05T05:33:11.794Z,0.67
2019-03-05T05:35:42.061Z,1.07
2019-03-05T05:38:13.347Z,0.90
2019-03-05T05:40:45.934Z,0.73
2019-03-05T05:43:18.483Z,0.90
2019-03-05T05:45:54.617Z,0.80
2019-03-05T05:48:25.207Z,1.30
2019-03-05T05:50:55.054Z,1.10
2019-03-05T05:53:25.381Z,0.80
2019-03-05T05:55:55.167Z,0.97
2019-03-05T05:58:25.212Z,1.30
2019-03-05T06:00:57.278Z,0.83
2019-03-05T06:03:27.087Z,0.93
2019-03-05T06:05:57.250Z,1.00
2019-03-05T06:08:27.163Z,0.90
2019-03-05T06:10:56.942Z,0.60
2019-03-05T06:13:27.770Z,1.10
2019-03-05T06:15:57.553Z,1.27
2019-03-05T06:18:27.859Z,0.97
2019-03-05T06:20:57.676Z,0.90
2019-03-05T06:23:27.556Z,0.80
2019-03-05T06:25:57.390Z,0.80
2019-03-05T06:28:27.732Z,0.80
2019-03-05T06:30:58.857Z,1.00
2019-03-05T06:33:28.748Z,0.70
2019-03-05T06:35:59.576Z,0.67
2019-03-05T06:38:29.903Z,0.70
2019-03-05T06:41:00.054Z,0.83
2019-03-05T06:43:30.305Z,0.80
2019-03-05T06:46:00.906Z,1.07
2019-03-05T06:48:30.721Z,1.00
2019-03-05T06:51:00.956Z,0.90
2019-03-05T06:53:30.705Z,0.73
2019-03-05T06:56:01.025Z,1.10
2019-03-05T06:58:31.390Z,0.80
2019-03-05T07:01:01.719Z,1.00
2019-03-05T07:03:32.076Z,1.07
2019-03-05T07:06:37.242Z,1.00
2019-03-05T07:09:37.916Z,1.77
2019-03-05T07:12:18.575Z,0.80
2019-03-05T07:15:08.284Z,0.77
2019-03-05T07:17:46.871Z,1.20
2019-03-05T07:21:04.131Z,1.17
2019-03-05T07:24:11.859Z,0.90
2019-03-05T07:26:42.439Z,1.00
2019-03-05T07:29:12.482Z,0.93
2019-03-05T07:31:42.810Z,0.90
2019-03-05T07:34:19.859Z,1.33
2019-03-05T07:36:50.471Z,0.60
2019-03-05T07:39:23.222Z,0.80
2019-03-05T07:41:53.134Z,1.10
2019-03-05T07:44:23.574Z,1.20
2019-03-05T07:46:53.434Z,1.13
2019-03-05T07:49:23.295Z,1.03
2019-03-05T07:51:53.339Z,1.10
2019-03-05T07:54:23.726Z,0.53
2019-03-05T07:56:53.974Z,0.80
2019-03-05T07:59:24.198Z,1.23
2019-03-05T08:01:54.447Z,1.03
2019-03-05T08:04:24.305Z,0.97
2019-03-05T08:06:54.592Z,1.40
2019-03-05T08:09:38.044Z,0.70
2019-03-05T08:12:42.886Z,0.87
2019-03-05T08:15:46.661Z,0.80
2019-03-05T08:18:16.859Z,0.77
2019-03-05T08:20:47.455Z,1.17
2019-03-05T08:23:18.439Z,0.87
2019-03-05T08:25:48.327Z,0.63
2019-03-05T08:28:18.588Z,0.70
2019-03-05T08:30:48.767Z,0.97
2019-03-05T08:33:24.336Z,1.10
2019-03-05T08:35:54.554Z,1.07
2019-03-05T08:38:24.539Z,0.90
2019-03-05T08:40:54.805Z,0.60
2019-03-05T08:43:25.375Z,0.80
2019-03-05T08:45:55.593Z,1.17
2019-03-05T08:48:28.254Z,0.67
2019-03-05T08:50:58.185Z,1.10
2019-03-05T08:53:28.722Z,0.70
2019-03-05T08:55:59.639Z,0.60
2019-03-05T08:58:29.494Z,0.80
2019-03-05T09:01:00.532Z,0.90
2019-03-05T09:03:30.823Z,1.00
2019-03-05T09:06:00.967Z,0.63
2019-03-05T09:08:31.580Z,0.70
2019-03-05T09:11:01.408Z,1.00
2019-03-05T09:13:33.057Z,0.93
2019-03-05T09:16:03.068Z,0.83
2019-03-05T09:18:33.307Z,0.73
2019-03-05T09:21:15.224Z,0.53
2019-03-05T09:23:45.135Z,0.70
2019-03-05T09:26:15.342Z,0.70
2019-03-05T09:28:45.775Z,0.50
2019-03-05T09:31:15.966Z,0.70
2019-03-05T09:33:46.166Z,0.70
2019-03-05T09:36:16.757Z,0.50
2019-03-05T09:38:47.412Z,0.77
2019-03-05T09:41:18.024Z,0.63
2019-03-05T09:43:47.818Z,0.60
2019-03-05T09:46:17.607Z,0.80
2019-03-05T09:48:47.823Z,0.80
2019-03-05T09:51:17.926Z,0.70
2019-03-05T09:53:47.751Z,0.80
2019-03-05T09:56:17.930Z,0.70
2019-03-05T09:58:48.758Z,0.53
2019-03-05T10:01:19.426Z,0.83
2019-03-05T10:03:49.684Z,0.63
2019-03-05T10:06:19.961Z,0.87
2019-03-05T10:08:50.606Z,0.87
2019-03-05T10:11:20.902Z,0.50
2019-03-05T10:13:51.175Z,0.60
2019-03-05T10:16:21.486Z,0.60
2019-03-05T10:18:51.319Z,0.47
2019-03-05T10:21:21.541Z,0.83
2019-03-05T10:23:52.483Z,0.57
2019-03-05T10:26:22.810Z,0.60
2019-03-05T10:28:52.887Z,0.60
2019-03-05T10:31:22.654Z,1.00
2019-03-05T10:33:52.457Z,1.30
2019-03-05T10:36:23.622Z,0.70
2019-03-05T10:38:57.507Z,0.93
2019-03-05T10:41:26.003Z,1.13
2019-03-05T10:43:57.188Z,0.50
2019-03-05T10:46:27.748Z,0.60
2019-03-05T10:48:57.667Z,0.70
2019-03-05T10:51:27.582Z,0.60
2019-03-05T10:53:57.364Z,0.60
2019-03-05T10:56:27.398Z,0.63
2019-03-05T10:58:57.771Z,0.70
2019-03-05T11:01:27.658Z,0.70
2019-03-05T11:03:58.979Z,0.90
2019-03-05T11:06:29.807Z,0.67
2019-03-05T11:08:59.927Z,0.60
2019-03-05T11:11:29.926Z,0.50
2019-03-05T11:13:59.780Z,0.67
2019-03-05T11:16:30.980Z,0.80
2019-03-05T11:19:01.523Z,0.80
2019-03-05T11:21:31.317Z,0.60
2019-03-05T11:24:01.082Z,0.87
2019-03-05T11:26:30.956Z,0.60
2019-03-05T11:29:01.110Z,0.57
2019-03-05T11:31:31.679Z,0.70
2019-03-05T11:34:02.012Z,0.70
2019-03-05T11:36:32.427Z,0.70
2019-03-05T11:39:02.215Z,0.70
2019-03-05T11:41:32.579Z,0.80
2019-03-05T11:44:02.830Z,0.80
2019-03-05T11:46:33.455Z,0.70
2019-03-05T11:49:04.206Z,0.70
2019-03-05T11:51:33.952Z,0.73
2019-03-05T11:54:05.517Z,0.70
2019-03-05T11:56:35.647Z,0.80
2019-03-05T11:59:06.087Z,0.80
2019-03-05T12:01:39.647Z,0.73
2019-03-05T12:04:09.807Z,0.70
2019-03-05T12:06:39.540Z,0.60
2019-03-05T12:09:09.945Z,0.40
2019-03-05T12:11:40.143Z,0.50
2019-03-05T12:14:10.286Z,0.60
2019-03-05T12:16:41.739Z,0.50
2019-03-05T12:19:11.610Z,0.70
2019-03-05T12:21:41.463Z,1.63
2019-03-05T12:24:12.167Z,0.70
2019-03-05T12:26:42.757Z,0.70
2019-03-05T12:29:12.844Z,0.73
2019-03-05T12:31:43.086Z,0.50
2019-03-05T12:34:12.925Z,0.70
2019-03-05T12:36:43.218Z,0.53
2019-03-05T12:39:15.558Z,0.57
2019-03-05T12:41:45.777Z,0.50
2019-03-05T12:44:16.067Z,0.80
2019-03-05T12:46:46.907Z,0.60
2019-03-05T12:49:17.233Z,0.60
2019-03-05T12:51:47.562Z,0.67
2019-03-05T12:54:18.496Z,0.83
2019-03-05T12:56:48.682Z,0.60
2019-03-05T12:59:18.535Z,0.70
2019-03-05T13:01:48.699Z,0.43
2019-03-05T13:04:18.996Z,0.53
2019-03-05T13:06:49.065Z,0.60
2019-03-05T13:09:19.706Z,0.50
2019-03-05T13:11:49.935Z,0.60
2019-03-05T13:14:21.235Z,0.60
2019-03-05T13:16:51.575Z,0.80
2019-03-05T13:19:22.211Z,0.93
2019-03-05T13:21:52.622Z,0.50
2019-03-05T13:24:23.251Z,0.87
2019-03-05T13:26:53.757Z,0.63
2019-03-05T13:29:23.878Z,0.70
2019-03-05T13:31:55.055Z,0.70
2019-03-05T13:34:25.468Z,0.97
2019-03-05T13:36:55.236Z,1.03
2019-03-05T13:39:25.367Z,0.80
2019-03-05T13:41:56.104Z,0.73
2019-03-05T13:44:36.125Z,0.80
2019-03-05T13:47:08.212Z,0.63
2019-03-05T13:50:19.131Z,0.70
2019-03-05T13:53:34.394Z,0.60
2019-03-05T13:56:26.332Z,0.73
2019-03-05T13:59:35.596Z,0.50
2019-03-05T14:02:06.903Z,1.60
2019-03-05T14:04:55.581Z,0.70
2019-03-05T14:08:18.777Z,0.57
2019-03-05T14:10:49.539Z,0.70
2019-03-05T14:13:19.429Z,1.00
2019-03-05T14:15:50.060Z,0.63
2019-03-05T14:18:20.187Z,0.77
2019-03-05T14:20:50.183Z,0.50
2019-03-05T14:23:21.451Z,1.17
2019-03-05T14:25:53.834Z,0.57
2019-03-05T14:28:24.375Z,0.80
2019-03-05T14:30:55.610Z,0.70
2019-03-05T14:33:39.518Z,0.90
2019-03-05T14:36:09.953Z,0.83
2019-03-05T14:38:40.675Z,0.83
2019-03-05T14:41:10.571Z,0.50
2019-03-05T14:43:41.181Z,0.80
2019-03-05T14:46:11.354Z,1.07
2019-03-05T14:48:41.299Z,1.00
2019-03-05T14:51:11.304Z,0.60
2019-03-05T14:53:41.535Z,0.63
2019-03-05T14:56:12.019Z,0.80
2019-03-05T14:58:42.379Z,0.80
2019-03-05T15:01:13.115Z,1.00
2019-03-05T15:03:43.722Z,0.60
2019-03-05T15:06:15.883Z,0.77
2019-03-05T15:08:47.109Z,0.57
2019-03-05T15:11:17.922Z,0.67
2019-03-05T15:13:47.867Z,0.80
2019-03-05T15:16:18.620Z,0.73
2019-03-05T15:18:48.452Z,0.80
2019-03-05T15:21:18.984Z,0.90
2019-03-05T15:23:48.812Z,0.80
2019-03-05T15:26:21.232Z,0.70
2019-03-05T15:28:56.278Z,1.20
2019-03-05T15:31:22.958Z,1.00
2019-03-05T15:33:52.743Z,1.00
2019-03-05T15:36:23.915Z,1.03
2019-03-05T15:38:54.518Z,1.60
2019-03-05T15:41:25.169Z,0.90
2019-03-05T15:43:54.925Z,1.37
2019-03-05T15:46:25.028Z,0.60
2019-03-05T15:48:55.522Z,0.80
2019-03-05T15:51:26.244Z,0.70
2019-03-05T15:53:56.580Z,1.10
2019-03-05T15:56:26.836Z,1.07
2019-03-05T15:58:57.341Z,0.90
2019-03-05T16:01:28.267Z,0.80
2019-03-05T16:03:58.421Z,0.70
2019-03-05T16:06:30.098Z,1.10
2019-03-05T16:09:03.284Z,0.87
2019-03-05T16:11:34.204Z,0.60
2019-03-05T16:14:04.558Z,0.70
2019-03-05T16:16:34.831Z,1.23
2019-03-05T16:19:05.108Z,1.00
2019-03-05T16:21:37.288Z,1.20
2019-03-05T16:24:07.102Z,0.80
2019-03-05T16:26:38.722Z,0.70
2019-03-05T16:29:08.827Z,1.37
2019-03-05T16:31:50.047Z,0.80
2019-03-05T16:34:46.877Z,0.83
2019-03-05T16:37:45.306Z,1.97
2019-03-05T16:40:30.518Z,0.70
2019-03-05T16:43:23.926Z,0.80
2019-03-05T16:46:15.579Z,1.23
2019-03-05T16:49:06.970Z,1.03
2019-03-05T16:51:44.183Z,1.10
2019-03-05T16:54:21.457Z,2.20
2019-03-05T16:57:22.721Z,0.90
2019-03-05T17:00:26.334Z,0.87
2019-03-05T17:03:11.509Z,1.57
2019-03-05T17:06:15.370Z,1.33
2019-03-05T17:09:22.204Z,1.27
2019-03-05T17:11:57.020Z,1.10
2019-03-05T17:14:27.409Z,1.70
2019-03-05T17:16:57.245Z,1.30
2019-03-05T17:19:27.627Z,1.40
2019-03-05T17:21:57.798Z,1.67
2019-03-05T17:24:28.111Z,3.30
2019-03-05T17:26:58.319Z,1.40
2019-03-05T17:29:29.631Z,2.00
2019-03-05T17:32:00.365Z,1.27
2019-03-05T17:34:31.639Z,1.17
2019-03-05T17:37:02.402Z,1.23
2019-03-05T17:39:33.602Z,1.20
2019-03-05T17:42:03.653Z,1.60
2019-03-05T17:44:34.872Z,1.73
2019-03-05T17:47:05.304Z,1.10
2019-03-05T17:49:35.426Z,1.60
2019-03-05T17:52:05.756Z,1.17
2019-03-05T17:54:36.026Z,1.77
2019-03-05T17:57:08.873Z,1.53
2019-03-05T17:59:38.576Z,1.70
2019-03-05T18:02:08.737Z,1.30
2019-03-05T18:04:39.005Z,1.60
2019-03-05T18:07:09.526Z,1.20
2019-03-05T18:09:39.865Z,7.50
2019-03-05T18:12:14.732Z,1.53
2019-03-05T18:14:47.361Z,1.70
2019-03-05T18:17:19.778Z,1.77
2019-03-05T18:19:50.718Z,1.50
2019-03-05T18:22:21.559Z,1.67
2019-03-05T18:24:52.382Z,1.93
2019-03-05T18:27:22.738Z,1.57
2019-03-05T18:29:52.929Z,2.20
2019-03-05T18:32:22.945Z,1.30
2019-03-05T18:34:53.255Z,1.60
2019-03-05T18:37:23.427Z,2.10
2019-03-05T18:39:54.704Z,1.73
2019-03-05T18:42:25.203Z,2.70
2019-03-05T18:44:55.266Z,1.97
2019-03-05T18:47:26.050Z,2.20
2019-03-05T18:49:56.389Z,2.17
2019-03-05T18:52:27.602Z,1.70
2019-03-05T18:54:57.779Z,2.00
2019-03-05T18:57:28.415Z,1.67
2019-03-05T19:00:06.122Z,2.20
2019-03-05T19:02:38.371Z,2.40
2019-03-05T19:05:11.257Z,2.00
2019-03-05T19:07:46.861Z,1.67
2019-03-05T19:10:19.016Z,1.40
2019-03-05T19:12:51.227Z,1.97
2019-03-05T19:15:24.538Z,1.23
2019-03-05T19:17:54.842Z,1.77
2019-03-05T19:20:25.346Z,1.40
2019-03-05T19:22:59.615Z,1.40
2019-03-05T19:25:29.576Z,1.30
2019-03-05T19:28:00.698Z,1.30
2019-03-05T19:30:33.084Z,1.50
2019-03-05T19:33:04.401Z,1.70
2019-03-05T19:35:34.695Z,1.30
2019-03-05T19:38:07.419Z,1.77
2019-03-05T19:40:39.053Z,1.30
2019-03-05T19:43:09.266Z,1.90
2019-03-05T19:45:40.147Z,1.83
2019-03-05T19:48:10.451Z,1.43
2019-03-05T19:50:40.335Z,1.30
2019-03-05T19:53:10.993Z,1.43
2019-03-05T19:55:42.161Z,1.40
2019-03-05T19:58:13.461Z,1.50
2019-03-05T20:00:54.306Z,1.53
2019-03-05T20:03:24.881Z,1.50
2019-03-05T20:05:55.704Z,1.23
2019-03-05T20:08:26.451Z,1.13
2019-03-05T20:10:56.405Z,1.00
2019-03-05T20:13:29.700Z,1.10
2019-03-05T20:16:00.779Z,0.90
2019-03-05T20:18:31.142Z,1.20
2019-03-05T20:21:02.035Z,1.00
2019-03-05T20:23:34.908Z,1.40
2019-03-05T20:26:05.200Z,1.23
2019-03-05T20:28:36.535Z,1.40
2019-03-05T20:31:07.362Z,1.03
2019-03-05T20:33:40.078Z,1.10
2019-03-05T20:36:11.540Z,1.67
2019-03-05T20:38:43.109Z,1.40
2019-03-05T20:41:14.387Z,1.60
2019-03-05T20:43:45.499Z,1.23
2019-03-05T20:46:20.228Z,1.20
2019-03-05T20:48:51.144Z,1.50
2019-03-05T20:51:22.790Z,1.60
2019-03-05T20:53:54.804Z,1.60
2019-03-05T20:56:25.639Z,1.40
2019-03-05T20:59:00.570Z,1.80
2019-03-05T21:01:34.346Z,1.67
2019-03-05T21:04:05.725Z,1.03
2019-03-05T21:06:36.496Z,1.40
2019-03-05T21:09:17.064Z,1.60
2019-03-05T21:11:47.915Z,1.13
2019-03-05T21:14:18.853Z,1.27
2019-03-05T21:16:51.207Z,1.20
2019-03-05T21:19:22.304Z,1.60
2019-03-05T21:21:53.040Z,1.70
2019-03-05T21:24:24.067Z,1.10
2019-03-05T21:26:54.806Z,1.70
2019-03-05T21:29:26.357Z,1.33
2019-03-05T21:31:59.378Z,1.83
2019-03-05T21:34:29.946Z,1.50
2019-03-05T21:37:00.950Z,1.57
2019-03-05T21:39:31.456Z,1.80
2019-03-05T21:42:01.327Z,1.27
2019-03-05T21:44:32.201Z,1.87
2019-03-05T21:47:02.447Z,1.80
2019-03-05T21:49:32.321Z,2.30
2019-03-05T21:52:02.514Z,2.30
2019-03-05T21:54:33.267Z,2.00
2019-03-05T21:57:04.022Z,1.70
2019-03-05T21:59:34.457Z,1.90
2019-03-05T22:02:05.070Z,1.60
2019-03-05T22:04:35.367Z,1.50
2019-03-05T22:07:09.466Z,1.73
2019-03-05T22:09:40.214Z,1.57
2019-03-05T22:12:11.301Z,1.67
2019-03-05T22:14:45.308Z,2.20
2019-03-05T22:17:16.668Z,1.87
2019-03-05T22:19:48.112Z,3.10
2019-03-05T22:22:19.547Z,2.70
2019-03-05T22:24:51.024Z,3.00
2019-03-05T22:27:22.024Z,2.57
2019-03-05T22:29:53.633Z,2.80
2019-03-05T22:32:27.099Z,2.17
2019-03-05T22:34:57.403Z,2.60
2019-03-05T22:37:28.459Z,2.87
2019-03-05T22:39:59.961Z,2.30
2019-03-05T22:42:31.094Z,2.70
2019-03-05T22:45:02.859Z,2.07
2019-03-05T22:47:36.073Z,2.33
2019-03-05T22:50:09.017Z,2.40
2019-03-05T22:52:39.707Z,2.43
2019-03-05T22:55:11.458Z,2.97
2019-03-05T22:57:42.919Z,2.80
2019-03-05T23:00:58.505Z,2.83
2019-03-05T23:03:29.112Z,2.83
2019-03-05T23:05:59.025Z,2.70
2019-03-05T23:08:29.213Z,2.67
2019-03-05T23:11:00.002Z,2.70
2019-03-05T23:13:30.903Z,2.50
2019-03-05T23:16:01.773Z,2.23
2019-03-05T23:18:31.995Z,2.93
2019-03-05T23:21:02.274Z,3.37
2019-03-05T23:23:32.750Z,3.10
2019-03-05T23:26:02.766Z,2.77
2019-03-05T23:28:32.651Z,3.30
2019-03-05T23:31:02.994Z,2.77
2019-03-05T23:33:32.939Z,2.63
2019-03-05T23:36:03.341Z,2.30
2019-03-05T23:38:34.294Z,2.27
2019-03-05T23:41:04.228Z,2.37
2019-03-05T23:43:34.778Z,2.77
2019-03-05T23:46:07.800Z,2.70
2019-03-05T23:48:37.805Z,2.43
2019-03-05T23:51:08.230Z,2.47
2019-03-05T23:53:38.131Z,2.40
2019-03-05T23:56:08.575Z,2.80
2019-03-05T23:58:38.411Z,2.17
